createdAt,value
2018-12-29T00:00:49.927Z,19.95
2018-12-29T00:03:26.227Z,22.52
2018-12-29T00:05:59.128Z,20.00
2018-12-29T00:08:30.266Z,19.52
2018-12-29T00:11:01.696Z,18.32
2018-12-29T00:13:33.028Z,16.75
2018-12-29T00:16:04.520Z,15.40
2018-12-29T00:18:35.599Z,16.42
2018-12-29T00:21:07.000Z,15.90
2018-12-29T00:23:38.258Z,16.48
2018-12-29T00:26:10.595Z,15.40
2018-12-29T00:28:41.843Z,15.28
2018-12-29T00:31:13.431Z,25.57
2018-12-29T00:33:44.897Z,47.67
2018-12-29T00:36:16.228Z,51.25
2018-12-29T00:38:47.791Z,56.53
2018-12-29T00:41:19.225Z,46.20
2018-12-29T00:43:50.895Z,64.53
2018-12-29T00:46:22.273Z,63.60
2018-12-29T00:48:53.744Z,61.77
2018-12-29T00:51:24.989Z,62.55
2018-12-29T00:53:56.256Z,68.33
2018-12-29T00:56:27.700Z,32.42
2018-12-29T00:58:59.108Z,21.15
2018-12-29T01:01:30.228Z,17.77
2018-12-29T01:04:01.510Z,22.25
2018-12-29T01:06:44.165Z,34.67
2018-12-29T01:09:15.689Z,19.42
2018-12-29T01:11:46.841Z,15.75
2018-12-29T01:14:18.229Z,16.20
2018-12-29T01:16:49.680Z,17.30
2018-12-29T01:19:21.030Z,16.70
2018-12-29T01:21:52.454Z,20.00
2018-12-29T01:24:23.844Z,20.32
2018-12-29T01:26:55.130Z,18.70
2018-12-29T01:29:26.538Z,21.00
2018-12-29T01:31:57.805Z,20.57
2018-12-29T01:34:29.645Z,32.80
2018-12-29T01:37:01.124Z,34.50
2018-12-29T01:39:32.580Z,39.45
2018-12-29T01:42:03.939Z,28.95
2018-12-29T01:44:35.457Z,22.42
2018-12-29T01:47:07.155Z,22.40
2018-12-29T01:49:38.937Z,39.38
2018-12-29T01:52:10.130Z,43.42
2018-12-29T01:54:41.762Z,19.15
2018-12-29T01:57:12.862Z,18.40
2018-12-29T01:59:44.183Z,18.35
2018-12-29T02:02:15.321Z,19.92
2018-12-29T02:04:46.862Z,20.60
2018-12-29T02:07:24.255Z,20.52
2018-12-29T02:09:55.663Z,21.70
2018-12-29T02:12:26.785Z,21.55
2018-12-29T02:14:58.240Z,20.82
2018-12-29T02:17:29.555Z,20.62
2018-12-29T02:20:01.223Z,20.97
2018-12-29T02:22:32.385Z,21.40
2018-12-29T02:25:03.751Z,21.15
2018-12-29T02:27:35.118Z,20.60
2018-12-29T02:30:06.580Z,19.95
2018-12-29T02:32:37.878Z,27.13
2018-12-29T02:35:09.372Z,26.42
2018-12-29T02:37:40.709Z,26.95
2018-12-29T02:40:11.925Z,25.23
2018-12-29T02:42:44.211Z,40.30
2018-12-29T02:45:15.723Z,32.28
2018-12-29T02:48:05.935Z,23.67
2018-12-29T02:50:37.439Z,26.30
2018-12-29T02:53:08.402Z,28.20
2018-12-29T02:55:39.607Z,27.60
2018-12-29T02:58:10.791Z,21.68
2018-12-29T03:00:42.165Z,20.20
2018-12-29T03:03:13.385Z,21.20
2018-12-29T03:05:44.862Z,20.68
2018-12-29T03:08:16.162Z,20.70
2018-12-29T03:10:52.735Z,19.35
2018-12-29T03:13:23.995Z,19.57
2018-12-29T03:15:55.238Z,39.03
2018-12-29T03:18:26.594Z,41.85
2018-12-29T03:20:58.279Z,29.40
2018-12-29T03:23:29.416Z,24.60
2018-12-29T03:26:00.882Z,24.80
2018-12-29T03:28:32.353Z,39.15
2018-12-29T03:31:03.894Z,46.25
2018-12-29T03:33:35.190Z,27.60
2018-12-29T03:36:06.433Z,22.85
2018-12-29T03:38:37.638Z,24.55
2018-12-29T03:41:09.074Z,43.23
2018-12-29T03:43:40.167Z,40.67
2018-12-29T03:46:11.818Z,41.70
2018-12-29T03:48:43.093Z,36.73
2018-12-29T03:51:14.708Z,25.12
2018-12-29T03:53:46.066Z,22.93
2018-12-29T03:56:17.333Z,20.72
2018-12-29T03:58:48.763Z,20.55
2018-12-29T04:01:20.071Z,27.15
2018-12-29T04:03:51.395Z,23.57
2018-12-29T04:06:22.798Z,22.62
2018-12-29T04:09:29.450Z,29.70
2018-12-29T04:12:01.312Z,29.10
2018-12-29T04:14:32.673Z,21.52
2018-12-29T04:17:04.508Z,21.02
2018-12-29T04:19:35.730Z,19.85
2018-12-29T04:22:07.196Z,18.42
2018-12-29T04:24:38.429Z,18.82
2018-12-29T04:27:09.749Z,18.73
2018-12-29T04:29:40.847Z,18.25
2018-12-29T04:32:12.312Z,18.07
2018-12-29T04:34:43.486Z,18.65
2018-12-29T04:37:14.810Z,21.42
2018-12-29T04:39:46.060Z,24.85
2018-12-29T04:42:17.551Z,27.93
2018-12-29T04:44:49.000Z,20.77
2018-12-29T04:47:20.395Z,21.93
2018-12-29T04:49:51.740Z,27.58
2018-12-29T04:52:23.115Z,23.57
2018-12-29T04:54:54.419Z,23.00
2018-12-29T04:57:25.667Z,24.82
2018-12-29T04:59:56.858Z,27.98
2018-12-29T05:02:28.254Z,33.98
2018-12-29T05:04:59.657Z,26.25
2018-12-29T05:07:30.903Z,21.85
2018-12-29T05:10:02.284Z,30.95
2018-12-29T05:12:33.749Z,27.48
2018-12-29T05:15:05.053Z,26.37
2018-12-29T05:17:36.361Z,25.08
2018-12-29T05:20:07.737Z,34.38
2018-12-29T05:22:39.105Z,37.28
2018-12-29T05:25:10.275Z,41.35
2018-12-29T05:27:41.874Z,45.08
2018-12-29T05:30:12.954Z,43.02
2018-12-29T05:32:44.329Z,38.38
2018-12-29T05:35:34.513Z,49.70
2018-12-29T05:38:17.291Z,25.45
2018-12-29T05:40:49.022Z,19.42
2018-12-29T05:43:20.701Z,16.82
2018-12-29T05:45:51.956Z,18.82
2018-12-29T05:48:23.499Z,19.17
2018-12-29T05:50:55.198Z,17.55
2018-12-29T05:53:26.761Z,16.67
2018-12-29T05:55:58.164Z,15.95
2018-12-29T05:58:29.812Z,15.72
2018-12-29T06:01:01.480Z,15.28
2018-12-29T06:03:32.753Z,15.85
2018-12-29T06:06:04.498Z,15.80
2018-12-29T06:08:35.964Z,18.15
2018-12-29T06:11:07.123Z,17.80
2018-12-29T06:13:38.819Z,22.10
2018-12-29T06:16:10.212Z,30.35
2018-12-29T06:18:41.618Z,35.52
2018-12-29T06:21:13.140Z,32.33
2018-12-29T06:23:44.384Z,28.35
2018-12-29T06:26:15.706Z,35.03
2018-12-29T06:28:47.197Z,34.90
2018-12-29T06:31:18.405Z,28.30
2018-12-29T06:33:50.907Z,45.28
2018-12-29T06:36:22.368Z,28.73
2018-12-29T06:38:53.662Z,19.75
2018-12-29T06:41:25.236Z,17.52
2018-12-29T06:43:56.746Z,18.57
2018-12-29T06:46:34.692Z,18.73
2018-12-29T06:49:01.166Z,18.67
2018-12-29T06:51:32.508Z,19.67
2018-12-29T06:54:03.781Z,19.00
2018-12-29T06:56:35.418Z,18.17
2018-12-29T06:59:06.648Z,19.73
2018-12-29T07:01:37.971Z,22.02
2018-12-29T07:04:10.627Z,19.60
2018-12-29T07:06:42.695Z,20.00
2018-12-29T07:09:26.087Z,19.92
2018-12-29T07:11:57.478Z,18.15
2018-12-29T07:14:28.960Z,15.98
2018-12-29T07:17:00.716Z,16.57
2018-12-29T07:19:31.853Z,17.27
2018-12-29T07:22:03.323Z,14.43
2018-12-29T07:24:35.057Z,14.83
2018-12-29T07:27:06.346Z,14.40
2018-12-29T07:29:38.317Z,16.05
2018-12-29T07:32:10.018Z,14.30
2018-12-29T07:34:41.373Z,16.62
2018-12-29T07:37:12.742Z,15.72
2018-12-29T07:39:43.849Z,16.95
2018-12-29T07:42:15.552Z,15.60
2018-12-29T07:44:47.132Z,16.52
2018-12-29T07:47:18.426Z,16.42
2018-12-29T07:49:49.729Z,16.57
2018-12-29T07:52:21.190Z,17.50
2018-12-29T07:54:52.613Z,19.02
2018-12-29T07:57:24.716Z,16.97
2018-12-29T07:59:55.964Z,22.30
2018-12-29T08:02:27.620Z,23.65
2018-12-29T08:04:58.981Z,26.73
2018-12-29T08:07:30.499Z,23.00
2018-12-29T08:10:01.969Z,19.73
2018-12-29T08:12:33.235Z,19.60
2018-12-29T08:15:04.654Z,20.43
2018-12-29T08:17:36.032Z,19.30
2018-12-29T08:20:07.950Z,21.37
2018-12-29T08:22:39.287Z,21.62
2018-12-29T08:25:10.555Z,25.32
2018-12-29T08:27:42.022Z,24.45
2018-12-29T08:30:13.664Z,27.13
2018-12-29T08:32:44.909Z,26.35
2018-12-29T08:35:16.653Z,37.35
2018-12-29T08:37:48.177Z,41.00
2018-12-29T08:40:19.550Z,38.38
2018-12-29T08:42:50.838Z,33.78
2018-12-29T08:45:22.350Z,44.08
2018-12-29T08:47:54.031Z,37.55
2018-12-29T08:50:25.328Z,39.58
2018-12-29T08:52:56.886Z,69.10
2018-12-29T08:55:28.106Z,37.88
2018-12-29T08:57:59.305Z,29.27
2018-12-29T09:00:30.634Z,25.52
2018-12-29T09:03:01.854Z,42.17
2018-12-29T09:05:33.401Z,29.42
2018-12-29T09:08:05.050Z,34.23
2018-12-29T09:10:36.358Z,25.62
2018-12-29T09:13:07.612Z,27.58
2018-12-29T09:15:39.340Z,25.40
2018-12-29T09:18:10.814Z,24.35
2018-12-29T09:20:42.239Z,23.92
2018-12-29T09:23:13.565Z,22.15
2018-12-29T09:25:45.074Z,22.37
2018-12-29T09:28:16.591Z,23.40
2018-12-29T09:30:47.999Z,21.62
2018-12-29T09:33:19.442Z,21.48
2018-12-29T09:35:50.841Z,26.60
2018-12-29T09:38:22.560Z,27.52
2018-12-29T09:40:53.964Z,31.12
2018-12-29T09:43:25.347Z,26.35
2018-12-29T09:45:56.562Z,22.37
2018-12-29T09:48:39.774Z,21.15
2018-12-29T09:51:11.279Z,20.95
2018-12-29T09:53:42.847Z,22.80
2018-12-29T09:56:13.369Z,22.60
2018-12-29T09:58:44.768Z,21.60
2018-12-29T10:01:16.085Z,24.37
2018-12-29T10:03:47.494Z,22.55
2018-12-29T10:06:18.987Z,23.10
2018-12-29T10:08:51.266Z,22.50
2018-12-29T10:11:25.535Z,26.55
2018-12-29T10:13:57.257Z,27.22
2018-12-29T10:16:28.598Z,27.13
2018-12-29T10:18:59.772Z,27.50
2018-12-29T10:21:31.461Z,25.45
2018-12-29T10:24:02.681Z,25.27
2018-12-29T10:26:34.306Z,24.47
2018-12-29T10:29:05.563Z,23.55
2018-12-29T10:31:36.958Z,24.32
2018-12-29T10:34:08.325Z,26.27
2018-12-29T10:36:39.816Z,27.22
2018-12-29T10:39:10.914Z,29.02
2018-12-29T10:41:42.248Z,29.37
2018-12-29T10:44:13.691Z,28.75
2018-12-29T10:46:45.237Z,27.55
2018-12-29T10:49:17.577Z,27.17
2018-12-29T10:51:49.091Z,26.50
2018-12-29T10:54:20.573Z,28.02
2018-12-29T10:56:51.924Z,25.45
2018-12-29T10:59:23.604Z,25.45
2018-12-29T11:01:55.170Z,24.45
2018-12-29T11:04:26.685Z,23.83
2018-12-29T11:06:58.212Z,22.82
2018-12-29T11:09:30.160Z,23.02
2018-12-29T11:12:01.552Z,22.27
2018-12-29T11:14:32.816Z,23.62
2018-12-29T11:17:04.754Z,25.30
2018-12-29T11:19:36.261Z,19.85
2018-12-29T11:22:07.534Z,19.07
2018-12-29T11:24:38.811Z,21.10
2018-12-29T11:27:10.012Z,22.05
2018-12-29T11:29:52.756Z,20.77
2018-12-29T11:32:24.168Z,26.15
2018-12-29T11:34:55.425Z,20.75
2018-12-29T11:37:27.033Z,22.93
2018-12-29T11:39:58.256Z,20.65
2018-12-29T11:42:29.798Z,22.10
2018-12-29T11:45:01.097Z,23.25
2018-12-29T11:47:32.249Z,19.40
2018-12-29T11:50:03.350Z,18.27
2018-12-29T11:52:34.752Z,19.00
2018-12-29T11:55:06.859Z,17.32
2018-12-29T11:57:38.147Z,18.80
2018-12-29T12:00:10.512Z,18.73
2018-12-29T12:02:41.729Z,18.25
2018-12-29T12:05:13.038Z,17.65
2018-12-29T12:07:44.626Z,18.00
2018-12-29T12:10:15.932Z,19.75
2018-12-29T12:12:58.596Z,19.87
2018-12-29T12:15:29.921Z,18.48
2018-12-29T12:18:01.470Z,19.90
2018-12-29T12:20:44.329Z,27.60
2018-12-29T12:23:15.988Z,18.50
2018-12-29T12:25:47.482Z,19.17
2018-12-29T12:28:19.560Z,17.70
2018-12-29T12:30:50.793Z,18.98
2018-12-29T12:33:22.430Z,18.32
2018-12-29T12:35:53.790Z,19.98
2018-12-29T12:38:24.930Z,20.57
2018-12-29T12:40:56.132Z,20.10
2018-12-29T12:43:27.454Z,19.27
2018-12-29T12:45:59.027Z,19.60
2018-12-29T12:48:30.436Z,19.50
2018-12-29T12:51:13.898Z,20.45
2018-12-29T12:53:45.466Z,21.07
2018-12-29T12:56:16.882Z,21.07
2018-12-29T12:58:48.433Z,19.57
2018-12-29T13:01:32.111Z,21.23
2018-12-29T13:04:03.544Z,21.48
2018-12-29T13:06:35.107Z,22.40
2018-12-29T13:09:08.379Z,19.62
2018-12-29T13:11:40.177Z,23.10
2018-12-29T13:14:11.865Z,25.43
2018-12-29T13:16:43.086Z,24.45
2018-12-29T13:19:14.536Z,26.50
2018-12-29T13:21:46.025Z,24.52
2018-12-29T13:24:17.407Z,23.83
2018-12-29T13:26:48.910Z,21.40
2018-12-29T13:29:20.572Z,20.97
2018-12-29T13:31:51.885Z,21.35
2018-12-29T13:34:23.131Z,22.60
2018-12-29T13:36:55.648Z,25.65
2018-12-29T13:39:26.997Z,27.95
2018-12-29T13:41:58.423Z,28.57
2018-12-29T13:44:29.804Z,24.63
2018-12-29T13:47:01.404Z,21.73
2018-12-29T13:49:33.901Z,24.77
2018-12-29T13:52:05.299Z,25.65
2018-12-29T13:54:36.636Z,27.67
2018-12-29T13:57:08.366Z,31.65
2018-12-29T13:59:39.641Z,28.42
2018-12-29T14:02:23.229Z,30.05
2018-12-29T14:04:54.932Z,29.90
2018-12-29T14:07:26.571Z,28.98
2018-12-29T14:09:58.382Z,23.77
2018-12-29T14:12:29.571Z,21.52
2018-12-29T14:15:00.678Z,21.73
2018-12-29T14:17:31.819Z,24.23
2018-12-29T14:20:07.919Z,21.95
2018-12-29T14:22:39.148Z,23.22
2018-12-29T14:25:10.402Z,24.05
2018-12-29T14:30:22.904Z,20.57
2018-12-29T14:32:54.346Z,35.20
2018-12-29T14:35:25.671Z,36.63
2018-12-29T14:37:57.250Z,31.17
2018-12-29T14:40:28.546Z,29.25
2018-12-29T14:42:59.871Z,26.10
2018-12-29T14:45:31.111Z,26.85
2018-12-29T14:48:02.461Z,27.93
2018-12-29T14:50:33.956Z,27.62
2018-12-29T14:53:05.532Z,26.62
2018-12-29T14:55:36.969Z,27.25
2018-12-29T14:58:08.756Z,28.12
2018-12-29T15:00:40.118Z,28.32
2018-12-29T15:03:11.625Z,27.82
2018-12-29T15:05:42.935Z,27.00
2018-12-29T15:08:14.422Z,27.00
2018-12-29T15:10:45.621Z,26.97
2018-12-29T15:13:17.448Z,27.80
2018-12-29T15:15:48.464Z,28.67
2018-12-29T15:18:20.131Z,28.15
2018-12-29T15:20:51.684Z,29.10
2018-12-29T15:23:23.006Z,28.73
2018-12-29T15:25:54.176Z,29.57
2018-12-29T15:28:25.843Z,28.80
2018-12-29T15:30:57.069Z,29.15
2018-12-29T15:33:28.702Z,31.30
2018-12-29T15:35:59.920Z,30.60
2018-12-29T15:38:31.380Z,31.95
2018-12-29T15:41:03.135Z,30.55
2018-12-29T15:43:34.697Z,31.48
2018-12-29T15:46:05.999Z,31.57
2018-12-29T15:48:37.382Z,32.58
2018-12-29T15:51:08.774Z,32.65
2018-12-29T15:53:40.169Z,34.53
2018-12-29T15:56:11.427Z,33.25
2018-12-29T15:58:42.778Z,36.00
2018-12-29T16:01:14.571Z,34.38
2018-12-29T16:03:45.994Z,34.15
2018-12-29T16:06:17.155Z,40.73
2018-12-29T16:08:48.696Z,35.33
2018-12-29T16:11:26.131Z,38.02
2018-12-29T16:13:53.492Z,36.83
2018-12-29T16:16:24.784Z,35.48
2018-12-29T16:18:58.978Z,35.25
2018-12-29T16:21:29.005Z,37.88
2018-12-29T16:24:00.379Z,37.48
2018-12-29T16:26:31.532Z,37.67
2018-12-29T16:29:05.873Z,44.98
2018-12-29T16:31:38.714Z,52.55
2018-12-29T16:34:11.434Z,43.78
2018-12-29T16:36:42.725Z,39.18
2018-12-29T16:39:14.078Z,36.42
2018-12-29T16:41:45.382Z,38.42
2018-12-29T16:44:16.775Z,39.05
2018-12-29T16:46:48.224Z,40.75
2018-12-29T16:49:19.497Z,38.75
2018-12-29T16:51:50.811Z,36.00
2018-12-29T16:54:22.321Z,41.30
2018-12-29T16:56:54.005Z,38.17
2018-12-29T16:59:25.814Z,36.05
2018-12-29T17:01:57.048Z,35.20
2018-12-29T17:04:28.572Z,32.40
2018-12-29T17:06:59.992Z,32.63
2018-12-29T17:09:31.823Z,33.23
2018-12-29T17:12:03.283Z,33.80
2018-12-29T17:14:35.079Z,33.63
2018-12-29T17:17:06.273Z,32.90
2018-12-29T17:19:37.862Z,33.70
2018-12-29T17:22:08.999Z,33.18
2018-12-29T17:24:40.755Z,33.92
2018-12-29T17:27:12.433Z,33.73
2018-12-29T17:29:43.941Z,35.17
2018-12-29T17:32:15.429Z,34.10
2018-12-29T17:34:46.954Z,36.00
2018-12-29T17:37:18.354Z,34.83
2018-12-29T17:39:49.731Z,36.68
2018-12-29T17:42:23.199Z,36.53
2018-12-29T17:44:54.690Z,38.28
2018-12-29T17:47:26.100Z,36.70
2018-12-29T17:49:57.292Z,38.25
2018-12-29T17:52:30.026Z,34.98
2018-12-29T17:55:01.825Z,34.60
2018-12-29T17:57:33.156Z,34.92
2018-12-29T18:00:04.600Z,34.53
2018-12-29T18:02:35.954Z,34.00
2018-12-29T18:05:07.354Z,35.92
2018-12-29T18:07:38.847Z,36.93
2018-12-29T18:10:10.061Z,36.40
2018-12-29T18:12:41.640Z,36.05
2018-12-29T18:15:13.078Z,38.05
2018-12-29T18:17:45.043Z,39.23
2018-12-29T18:20:16.783Z,41.02
2018-12-29T18:23:07.069Z,37.98
2018-12-29T18:25:38.436Z,41.13
2018-12-29T18:28:09.827Z,37.88
2018-12-29T18:30:41.175Z,39.73
2018-12-29T18:33:12.711Z,39.13
2018-12-29T18:35:44.074Z,38.13
2018-12-29T18:38:16.255Z,36.45
2018-12-29T18:40:48.753Z,37.48
2018-12-29T18:43:20.122Z,35.98
2018-12-29T18:45:51.701Z,37.40
2018-12-29T18:48:22.981Z,44.83
2018-12-29T18:50:54.723Z,42.75
2018-12-29T18:53:26.392Z,37.03
2018-12-29T18:55:57.544Z,36.93
2018-12-29T18:58:29.028Z,36.35
2018-12-29T19:01:00.335Z,36.25
2018-12-29T19:03:31.613Z,33.63
2018-12-29T19:06:03.329Z,34.38
2018-12-29T19:08:34.747Z,35.78
2018-12-29T19:11:06.346Z,35.40
2018-12-29T19:13:37.918Z,32.75
2018-12-29T19:16:10.021Z,31.85
2018-12-29T19:18:41.994Z,32.73
2018-12-29T19:21:14.317Z,32.95
2018-12-29T19:23:45.989Z,32.65
2018-12-29T19:26:17.788Z,32.95
2018-12-29T19:28:53.370Z,34.92
2018-12-29T19:31:25.502Z,34.25
2018-12-29T19:33:58.203Z,31.52
2018-12-29T19:36:30.372Z,36.17
2018-12-29T19:39:02.346Z,35.90
2018-12-29T19:41:34.867Z,37.00
2018-12-29T19:44:06.226Z,37.90
2018-12-29T19:46:37.939Z,36.88
2018-12-29T19:49:09.369Z,37.03
2018-12-29T19:51:40.801Z,35.78
2018-12-29T19:54:12.288Z,34.40
2018-12-29T19:56:43.940Z,37.33
2018-12-29T19:59:15.582Z,37.13
2018-12-29T20:01:46.921Z,38.92
2018-12-29T20:04:18.588Z,35.60
2018-12-29T20:06:50.330Z,36.42
2018-12-29T20:09:21.557Z,35.13
2018-12-29T20:11:52.877Z,33.98
2018-12-29T20:14:24.365Z,34.38
2018-12-29T20:16:55.608Z,60.50
2018-12-29T20:19:26.885Z,54.48
2018-12-29T20:21:58.353Z,48.92
2018-12-29T20:24:29.859Z,45.15
2018-12-29T20:27:01.339Z,38.42
2018-12-29T20:29:32.888Z,34.88
2018-12-29T20:32:04.434Z,32.80
2018-12-29T20:34:36.384Z,32.48
2018-12-29T20:37:07.654Z,30.30
2018-12-29T20:39:38.930Z,30.92
2018-12-29T20:42:10.193Z,34.18
2018-12-29T20:44:41.585Z,33.00
2018-12-29T20:47:12.683Z,33.40
2018-12-29T20:49:44.018Z,34.20
2018-12-29T20:52:15.544Z,171.20
2018-12-29T20:54:46.984Z,338.25
2018-12-29T20:57:18.723Z,54.08
2018-12-29T20:59:50.016Z,37.70
2018-12-29T21:02:21.711Z,35.33
2018-12-29T21:04:53.046Z,45.67
2018-12-29T21:07:24.312Z,36.08
2018-12-29T21:09:55.750Z,37.73
2018-12-29T21:12:27.351Z,36.50
2018-12-29T21:14:58.734Z,37.85
2018-12-29T21:17:30.153Z,40.75
2018-12-29T21:20:01.787Z,59.20
2018-12-29T21:22:33.070Z,41.58
2018-12-29T21:25:04.430Z,52.33
2018-12-29T21:27:35.848Z,53.52
2018-12-29T21:30:07.640Z,54.98
2018-12-29T21:32:39.237Z,60.45
2018-12-29T21:35:10.494Z,61.85
2018-12-29T21:37:41.968Z,60.90
2018-12-29T21:40:13.486Z,74.10
2018-12-29T21:42:45.342Z,70.42
2018-12-29T21:45:16.589Z,68.55
2018-12-29T21:47:48.044Z,71.57
2018-12-29T21:50:25.421Z,88.12
2018-12-29T21:52:52.565Z,97.47
2018-12-29T21:55:35.632Z,73.17
2018-12-29T21:58:07.144Z,61.65
2018-12-29T22:00:38.561Z,60.83
2018-12-29T22:03:10.124Z,55.00
2018-12-29T22:05:41.411Z,53.83
2018-12-29T22:08:12.694Z,50.70
2018-12-29T22:10:43.855Z,51.55
2018-12-29T22:13:15.012Z,47.48
2018-12-29T22:15:46.418Z,46.68
2018-12-29T22:18:17.586Z,43.87
2018-12-29T22:20:48.893Z,45.12
2018-12-29T22:23:20.507Z,44.77
2018-12-29T22:25:52.105Z,41.02
2018-12-29T22:28:23.188Z,39.95
2018-12-29T22:30:54.707Z,40.60
2018-12-29T22:33:25.936Z,38.23
2018-12-29T22:35:57.222Z,34.85
2018-12-29T22:38:28.354Z,36.95
2018-12-29T22:40:59.666Z,37.85
2018-12-29T22:43:30.795Z,42.88
2018-12-29T22:46:02.264Z,41.50
2018-12-29T22:51:14.247Z,41.05
2018-12-29T22:53:45.871Z,41.37
2018-12-29T22:56:17.301Z,40.95
2018-12-29T22:58:49.017Z,43.70
2018-12-29T23:01:20.895Z,46.35
2018-12-29T23:03:52.338Z,46.68
2018-12-29T23:06:23.449Z,48.13
2018-12-29T23:08:55.010Z,51.95
2018-12-29T23:11:26.474Z,51.23
2018-12-29T23:13:57.741Z,50.48
2018-12-29T23:16:28.983Z,49.70
2018-12-29T23:22:28.275Z,61.75
2018-12-29T23:25:52.655Z,68.42
2018-12-29T23:28:27.015Z,74.85
2018-12-29T23:30:58.312Z,78.60
2018-12-29T23:33:29.711Z,123.28
2018-12-29T23:36:00.993Z,100.25
2018-12-29T23:38:32.494Z,110.90
2018-12-29T23:41:04.025Z,116.93
2018-12-29T23:43:35.235Z,109.45
2018-12-29T23:46:06.259Z,102.67
2018-12-29T23:48:37.601Z,106.75
2018-12-29T23:51:09.197Z,100.55
2018-12-29T23:53:40.602Z,97.90
2018-12-29T23:56:12.376Z,91.87
2018-12-29T23:58:44.037Z,89.87
